RJBB Airport Information

Runway Information
Runway 06L Length 13123 ft width 196 ft
Elevation 24 ft Threshold 0 ft Heading 51
Runway 24R Length 13123 ft Width 196 ft
Elevation 32 ft Threshold 0 ft Heading 231
Runway 06R Length 11483 ft width 196 ft
Elevation 6 ft Threshold 0 ft Heading 51
Runway 24L Length 11483 ft Width 196 ft
Elevation 15 ft Threshold 0 ft Heading 231
Airport Frequencies
Type APP Name APP Frequency 120.25 MHZ
Type ATIS Name ATIS Frequency 127.85 MHZ
Type CLD Name CLNC DEL Frequency 121.9 MHZ
Type DEP Name DEP Frequency 119.2 MHZ
Type GND Name GND Frequency 121.6 MHZ
Type TCA Name TCA Frequency 121.1 MHZ
Type TWR Name TWR Frequency 118.2 MHZ
Airport Navaids
Type NDB Name Kansai Frequency 346 KHZ
Type VOR-DME Name Kansai Frequency 111800 KHZ
Type VOR-DME Name Shigi Frequency 111600 KHZ
Type VOR-DME Name Shinoda Frequency 112300 KHZ
Type VOR-DME Name Tomo Frequency 116400 KHZ
Airport Weather Information & NOTAM
ADDS - METARS form results

(0521 UTC 04 July 2020)
Data provider http://aviationweather.gov/metar/data/
 
METAR text: RJBB 040500Z 21028KT 9999 VCSH FEW008 SCT025 BKN040 27/24 Q1002 NOSIG
Conditions at: RJBB (KANSAI INTL , JP) observed 0500 UTC 04 July 2020
Temperature: 27.0°C (81°F)
Dewpoint: 24.0°C (75°F) [RH = 84%]
Pressure (altimeter): 29.59 inches Hg (1002.0 mb)
Winds: from the SSW (210 degrees) at 32 MPH (28 knots; 14.4 m/s)
Visibility: 6 or more miles (10+ km)
Ceiling: 4000 feet AGL
Clouds: few clouds at 800 feet AGL
scattered clouds at 2500 feet AGL
broken clouds at 4000 feet AGL
Weather: VCSH  (showers in vicinity)

METAR text: RJBB 040433Z 20028G38KT 9999 -SHRA FEW008 FEW020CB SCT025 BKN040 27/23 Q1002 RMK 1ST008 2CB020 3CU025 5CU040 A2960 CB 10KM NW MOV NE
Conditions at: RJBB (KANSAI INTL , JP) observed 0433 UTC 04 July 2020
Temperature: 27.0°C (81°F)
Dewpoint: 23.0°C (73°F) [RH = 79%]
Pressure (altimeter): 29.59 inches Hg (1002.0 mb)
Winds: from the SSW (200 degrees) at 32 MPH (28 knots; 14.4 m/s)
gusting to 44 MPH (38 knots; 19.5 m/s)
Visibility: 6 or more miles (10+ km)
Ceiling: 4000 feet AGL
Clouds: few clouds at 800 feet AGL
few clouds at 2000 feet AGL
scattered clouds at 2500 feet AGL
broken clouds at 4000 feet AGL
Weather: -SHRA  (light rain showers)

METAR text: RJBB 040430Z 20029KT 9999 -SHRA FEW008 FEW020CB SCT025 BKN040 27/23 Q1002 TEMPO 20029G39KT
Conditions at: RJBB (KANSAI INTL , JP) observed 0430 UTC 04 July 2020
Temperature: 27.0°C (81°F)
Dewpoint: 23.0°C (73°F) [RH = 79%]
Pressure (altimeter): 29.59 inches Hg (1002.0 mb)
Winds: from the SSW (200 degrees) at 33 MPH (29 knots; 14.9 m/s)
Visibility: 6 or more miles (10+ km)
Ceiling: 4000 feet AGL
Clouds: few clouds at 800 feet AGL
few clouds at 2000 feet AGL
scattered clouds at 2500 feet AGL
broken clouds at 4000 feet AGL
Weather: -SHRA  (light rain showers)

Forecast for: RJBB (KANSAI INTL , JP)
Text: TAF RJBB 040509Z 0406/0512 22012KT 9999 FEW020 BKN040
Forecast period: 0600 UTC 04 July 2020 to 1200 UTC 05 July 2020
Forecast type: FROM: standard forecast or significant change
Winds: from the SW (220 degrees) at 14 MPH (12 knots; 6.2 m/s)
Visibility: 6 or more miles 10+ km)
Ceiling: 4000 feet AGL
Clouds: few clouds at 2000 feet AGL
broken clouds at 4000 feet AGL
Weather: no significant weather forecast for this period